sensor_id;sensor_type;location;lat;lon;timestamp;pressure;altitude;pressure_sealevel;temperature;humidity
9035;BME280;4552;43.422;24.592;2023-09-18T05:18:29;100459.47;;;18.99;100.00
9035;BME280;4552;43.422;24.592;2023-09-18T05:20:57;100444.09;;;19.30;100.00
9035;BME280;4552;43.422;24.592;2023-09-18T05:23:24;100451.28;;;19.48;100.00
9035;BME280;4552;43.422;24.592;2023-09-18T05:25:51;100456.44;;;19.73;100.00
9035;BME280;4552;43.422;24.592;2023-09-18T05:28:18;100442.56;;;19.86;100.00
9035;BME280;4552;43.422;24.592;2023-09-18T05:30:45;100451.91;;;20.35;98.71
9035;BME280;4552;43.422;24.592;2023-09-18T05:56:46;100476.88;;;20.51;93.20
9035;BME280;4552;43.422;24.592;2023-09-18T05:59:14;100477.00;;;20.29;93.87
9035;BME280;4552;43.422;24.592;2023-09-18T06:08:25;100479.97;;;20.02;95.67
9035;BME280;4552;43.422;24.592;2023-09-18T06:10:52;100481.66;;;20.24;94.59
9035;BME280;4552;43.422;24.592;2023-09-18T06:13:23;100479.22;;;19.98;94.68
9035;BME280;4552;43.422;24.592;2023-09-18T06:15:50;100490.34;;;20.08;94.02
9035;BME280;4552;43.422;24.592;2023-09-18T06:25:30;100502.09;;;20.42;91.53
9035;BME280;4552;43.422;24.592;2023-09-18T06:27:57;100484.31;;;20.82;89.65
9035;BME280;4552;43.422;24.592;2023-09-18T06:30:27;100496.38;;;20.70;88.67
9035;BME280;4552;43.422;24.592;2023-09-18T06:32:56;100503.16;;;20.58;90.14
9035;BME280;4552;43.422;24.592;2023-09-18T06:35:23;100496.53;;;20.67;89.08
9035;BME280;4552;43.422;24.592;2023-09-18T06:37:50;100501.69;;;20.51;89.35
9035;BME280;4552;43.422;24.592;2023-09-18T06:40:18;100479.97;;;20.60;88.82
9035;BME280;4552;43.422;24.592;2023-09-18T06:42:45;100501.72;;;20.89;87.95
9035;BME280;4552;43.422;24.592;2023-09-18T06:45:12;100496.75;;;21.01;87.43
9035;BME280;4552;43.422;24.592;2023-09-18T08:42:05;100497.25;;;23.59;59.27
9035;BME280;4552;43.422;24.592;2023-09-18T08:44:35;100491.41;;;23.21;59.54
9035;BME280;4552;43.422;24.592;2023-09-18T10:25:12;100427.47;;;25.46;40.27
9035;BME280;4552;43.422;24.592;2023-09-18T10:27:41;100432.47;;;25.77;38.78
9035;BME280;4552;43.422;24.592;2023-09-18T10:30:11;100420.53;;;25.56;37.00
9035;BME280;4552;43.422;24.592;2023-09-18T10:56:14;100400.81;;;25.70;35.47
9035;BME280;4552;43.422;24.592;2023-09-18T10:58:43;100411.91;;;25.90;36.32
9035;BME280;4552;43.422;24.592;2023-09-18T11:01:11;100412.34;;;25.84;35.35
9035;BME280;4552;43.422;24.592;2023-09-18T11:40:40;100389.38;;;26.30;33.96
9035;BME280;4552;43.422;24.592;2023-09-18T11:43:29;100382.31;;;26.29;34.18
9035;BME280;4552;43.422;24.592;2023-09-18T11:45:57;100378.63;;;26.30;34.07
9035;BME280;4552;43.422;24.592;2023-09-18T11:48:25;100363.72;;;26.39;34.09
9035;BME280;4552;43.422;24.592;2023-09-18T11:50:56;100381.19;;;26.69;34.74
9035;BME280;4552;43.422;24.592;2023-09-18T11:53:24;100352.63;;;26.56;34.00
9035;BME280;4552;43.422;24.592;2023-09-18T11:55:54;100364.72;;;26.61;34.67
9035;BME280;4552;43.422;24.592;2023-09-18T11:58:21;100357.78;;;26.46;35.69
9035;BME280;4552;43.422;24.592;2023-09-18T12:00:49;100352.13;;;26.26;34.90
9035;BME280;4552;43.422;24.592;2023-09-18T12:03:18;100351.38;;;26.24;34.59
9035;BME280;4552;43.422;24.592;2023-09-18T12:05:55;100343.00;;;26.28;35.15
9035;BME280;4552;43.422;24.592;2023-09-18T12:08:23;100349.09;;;26.43;35.63
9035;BME280;4552;43.422;24.592;2023-09-18T12:10:52;100356.31;;;26.42;35.21
9035;BME280;4552;43.422;24.592;2023-09-18T12:13:21;100344.25;;;26.48;35.60
9035;BME280;4552;43.422;24.592;2023-09-18T12:15:48;100333.72;;;26.45;34.61
9035;BME280;4552;43.422;24.592;2023-09-18T12:18:16;100334.50;;;26.47;34.76
9035;BME280;4552;43.422;24.592;2023-09-18T12:20:47;100329.22;;;26.45;34.42
9035;BME280;4552;43.422;24.592;2023-09-18T12:23:14;100342.00;;;26.54;35.24
9035;BME280;4552;43.422;24.592;2023-09-18T12:25:42;100336.09;;;26.49;35.85
9035;BME280;4552;43.422;24.592;2023-09-18T12:28:11;100333.94;;;26.67;35.51
9035;BME280;4552;43.422;24.592;2023-09-18T12:30:41;100335.00;;;26.52;34.66
9035;BME280;4552;43.422;24.592;2023-09-18T12:33:08;100316.72;;;26.69;34.30
9035;BME280;4552;43.422;24.592;2023-09-18T12:35:36;100320.38;;;26.68;34.42
9035;BME280;4552;43.422;24.592;2023-09-18T12:38:13;100336.66;;;26.78;35.51
9035;BME280;4552;43.422;24.592;2023-09-18T12:40:41;100323.47;;;26.62;35.26
9035;BME280;4552;43.422;24.592;2023-09-18T12:43:10;100321.44;;;26.53;35.58
9035;BME280;4552;43.422;24.592;2023-09-18T12:45:38;100314.44;;;26.76;34.91
9035;BME280;4552;43.422;24.592;2023-09-18T12:48:16;100327.00;;;26.75;35.75
9035;BME280;4552;43.422;24.592;2023-09-18T12:50:43;100310.03;;;26.62;36.35
9035;BME280;4552;43.422;24.592;2023-09-18T12:53:12;100308.72;;;26.80;35.86
9035;BME280;4552;43.422;24.592;2023-09-18T12:55:44;100307.97;;;27.02;35.33
9035;BME280;4552;43.422;24.592;2023-09-18T12:58:11;100309.00;;;26.88;35.36
9035;BME280;4552;43.422;24.592;2023-09-18T13:00:45;100307.00;;;26.79;36.04
9035;BME280;4552;43.422;24.592;2023-09-18T14:47:38;100235.88;;;26.72;36.20
9035;BME280;4552;43.422;24.592;2023-09-18T14:50:05;100235.47;;;26.66;35.93
9035;BME280;4552;43.422;24.592;2023-09-18T14:52:34;100233.09;;;26.74;35.87
9035;BME280;4552;43.422;24.592;2023-09-18T14:55:01;100233.56;;;26.55;36.17
9035;BME280;4552;43.422;24.592;2023-09-18T14:57:29;100233.03;;;26.50;35.52
9035;BME280;4552;43.422;24.592;2023-09-18T14:59:56;100233.78;;;26.52;36.35
9035;BME280;4552;43.422;24.592;2023-09-18T15:02:23;100236.47;;;26.65;36.51
9035;BME280;4552;43.422;24.592;2023-09-18T15:04:56;100225.41;;;26.57;36.05
9035;BME280;4552;43.422;24.592;2023-09-18T15:07:24;100225.28;;;26.58;36.28
9035;BME280;4552;43.422;24.592;2023-09-18T15:09:51;100229.09;;;26.43;36.18
9035;BME280;4552;43.422;24.592;2023-09-18T15:12:18;100225.84;;;26.63;36.36
9035;BME280;4552;43.422;24.592;2023-09-18T15:14:45;100227.31;;;26.67;35.55
9035;BME280;4552;43.422;24.592;2023-09-18T15:30:35;100229.28;;;26.65;35.50
9035;BME280;4552;43.422;24.592;2023-09-18T15:33:03;100226.03;;;26.60;35.58
9035;BME280;4552;43.422;24.592;2023-09-18T15:35:30;100224.75;;;26.53;35.56
9035;BME280;4552;43.422;24.592;2023-09-18T15:37:59;100224.53;;;26.56;35.55
9035;BME280;4552;43.422;24.592;2023-09-18T15:40:29;100229.00;;;26.45;36.64
9035;BME280;4552;43.422;24.592;2023-09-18T15:43:02;100223.06;;;26.52;35.62
9035;BME280;4552;43.422;24.592;2023-09-18T15:45:29;100224.28;;;26.59;35.81
9035;BME280;4552;43.422;24.592;2023-09-18T15:47:58;100221.63;;;26.36;36.25
9035;BME280;4552;43.422;24.592;2023-09-18T15:50:25;100223.69;;;26.20;36.94
9035;BME280;4552;43.422;24.592;2023-09-18T15:52:55;100216.00;;;26.15;37.30
9035;BME280;4552;43.422;24.592;2023-09-18T15:55:22;100215.25;;;26.13;37.14
9035;BME280;4552;43.422;24.592;2023-09-18T15:57:49;100201.72;;;26.15;37.22
9035;BME280;4552;43.422;24.592;2023-09-18T16:00:16;100210.72;;;26.14;37.85
9035;BME280;4552;43.422;24.592;2023-09-18T16:02:44;100203.88;;;25.97;38.14
9035;BME280;4552;43.422;24.592;2023-09-18T16:05:16;100206.03;;;25.92;38.36
9035;BME280;4552;43.422;24.592;2023-09-18T16:07:53;100197.69;;;25.84;38.30
9035;BME280;4552;43.422;24.592;2023-09-18T16:10:25;100205.66;;;25.73;38.39
9035;BME280;4552;43.422;24.592;2023-09-18T16:12:52;100204.34;;;25.66;38.53
9035;BME280;4552;43.422;24.592;2023-09-18T16:15:19;100205.78;;;25.59;38.47
9035;BME280;4552;43.422;24.592;2023-09-18T16:17:46;100196.53;;;25.63;38.19
9035;BME280;4552;43.422;24.592;2023-09-18T16:20:14;100196.97;;;25.70;38.71
9035;BME280;4552;43.422;24.592;2023-09-18T16:22:41;100203.63;;;25.64;38.23
9035;BME280;4552;43.422;24.592;2023-09-18T16:25:12;100193.63;;;25.66;38.20
9035;BME280;4552;43.422;24.592;2023-09-18T16:27:40;100199.22;;;25.63;38.56
9035;BME280;4552;43.422;24.592;2023-09-18T16:30:08;100189.78;;;25.45;39.07
9035;BME280;4552;43.422;24.592;2023-09-18T16:32:37;100199.69;;;25.44;38.97
9035;BME280;4552;43.422;24.592;2023-09-18T16:35:05;100191.97;;;25.40;39.04
9035;BME280;4552;43.422;24.592;2023-09-18T16:37:33;100200.13;;;25.38;39.33
9035;BME280;4552;43.422;24.592;2023-09-18T16:40:02;100203.75;;;25.37;39.14
9035;BME280;4552;43.422;24.592;2023-09-18T16:42:30;100197.81;;;25.20;39.51
9035;BME280;4552;43.422;24.592;2023-09-18T16:44:58;100203.81;;;25.23;39.84
9035;BME280;4552;43.422;24.592;2023-09-18T16:47:26;100205.88;;;25.20;39.80
9035;BME280;4552;43.422;24.592;2023-09-18T16:49:54;100207.75;;;25.05;40.59
9035;BME280;4552;43.422;24.592;2023-09-18T16:52:21;100212.22;;;24.80;41.75
9035;BME280;4552;43.422;24.592;2023-09-18T16:54:49;100216.00;;;24.63;44.03
9035;BME280;4552;43.422;24.592;2023-09-18T16:57:16;100222.97;;;24.39;44.62
9035;BME280;4552;43.422;24.592;2023-09-18T16:59:43;100203.63;;;24.22;43.86
9035;BME280;4552;43.422;24.592;2023-09-18T17:02:11;100220.78;;;24.32;42.74
9035;BME280;4552;43.422;24.592;2023-09-18T17:04:38;100219.28;;;24.28;43.59
9035;BME280;4552;43.422;24.592;2023-09-18T17:07:07;100212.25;;;24.13;43.14
9035;BME280;4552;43.422;24.592;2023-09-18T17:09:41;100212.81;;;24.18;43.33
9035;BME280;4552;43.422;24.592;2023-09-18T17:12:10;100222.38;;;24.08;44.70
9035;BME280;4552;43.422;24.592;2023-09-18T17:14:37;100223.31;;;23.92;46.67
9035;BME280;4552;43.422;24.592;2023-09-18T17:17:05;100219.16;;;23.74;46.63
9035;BME280;4552;43.422;24.592;2023-09-18T17:19:32;100216.97;;;23.81;45.11
9035;BME280;4552;43.422;24.592;2023-09-18T17:21:59;100220.38;;;23.69;47.24
9035;BME280;4552;43.422;24.592;2023-09-18T17:24:29;100212.47;;;23.39;48.44
9035;BME280;4552;43.422;24.592;2023-09-18T17:26:59;100208.59;;;23.15;49.47
9035;BME280;4552;43.422;24.592;2023-09-18T17:29:28;100212.53;;;22.80;51.83
9035;BME280;4552;43.422;24.592;2023-09-18T17:31:59;100211.97;;;22.89;51.54
9035;BME280;4552;43.422;24.592;2023-09-18T17:34:26;100219.34;;;22.70;52.39
9035;BME280;4552;43.422;24.592;2023-09-18T17:37:02;100226.34;;;22.57;53.37
9035;BME280;4552;43.422;24.592;2023-09-18T17:39:29;100234.44;;;22.40;54.26
9035;BME280;4552;43.422;24.592;2023-09-18T17:41:56;100222.97;;;22.38;54.17
9035;BME280;4552;43.422;24.592;2023-09-18T17:44:23;100233.38;;;22.27;55.94
9035;BME280;4552;43.422;24.592;2023-09-18T17:46:51;100238.91;;;22.24;55.89
9035;BME280;4552;43.422;24.592;2023-09-18T17:49:18;100232.88;;;22.05;55.70
9035;BME280;4552;43.422;24.592;2023-09-18T17:51:48;100239.25;;;21.87;57.65
9035;BME280;4552;43.422;24.592;2023-09-18T17:54:15;100237.84;;;21.80;57.70
9035;BME280;4552;43.422;24.592;2023-09-18T17:56:42;100236.38;;;21.57;59.66
9035;BME280;4552;43.422;24.592;2023-09-18T17:59:11;100240.56;;;21.46;60.20
9035;BME280;4552;43.422;24.592;2023-09-18T18:01:38;100246.53;;;21.34;60.45
9035;BME280;4552;43.422;24.592;2023-09-18T21:30:54;100224.50;;;18.07;80.95
9035;BME280;4552;43.422;24.592;2023-09-18T21:33:21;100223.69;;;18.27;80.45
9035;BME280;4552;43.422;24.592;2023-09-18T21:35:48;100223.56;;;18.30;79.62
9035;BME280;4552;43.422;24.592;2023-09-18T21:38:14;100207.59;;;18.10;80.28
9035;BME280;4552;43.422;24.592;2023-09-18T21:40:44;100213.38;;;17.98;81.88
9035;BME280;4552;43.422;24.592;2023-09-18T21:43:11;100199.63;;;17.67;83.74
9035;BME280;4552;43.422;24.592;2023-09-18T21:45:40;100217.00;;;17.74;83.81
9035;BME280;4552;43.422;24.592;2023-09-18T21:48:08;100215.59;;;17.64;85.25
9035;BME280;4552;43.422;24.592;2023-09-18T21:50:35;100203.34;;;17.61;84.41
9035;BME280;4552;43.422;24.592;2023-09-18T21:53:02;100205.66;;;17.70;84.62
9035;BME280;4552;43.422;24.592;2023-09-18T21:55:29;100199.84;;;17.61;84.96
9035;BME280;4552;43.422;24.592;2023-09-18T21:57:56;100213.00;;;17.85;84.25
9035;BME280;4552;43.422;24.592;2023-09-18T22:00:23;100205.31;;;18.01;81.38
9035;BME280;4552;43.422;24.592;2023-09-18T22:02:54;100199.56;;;17.90;81.93
9035;BME280;4552;43.422;24.592;2023-09-18T22:05:23;100191.63;;;17.90;81.08
9035;BME280;4552;43.422;24.592;2023-09-18T22:07:49;100188.34;;;17.62;82.88
9035;BME280;4552;43.422;24.592;2023-09-18T22:10:17;100197.41;;;17.55;83.74
9035;BME280;4552;43.422;24.592;2023-09-18T22:12:44;100197.66;;;17.49;84.55
9035;BME280;4552;43.422;24.592;2023-09-18T22:15:11;100209.28;;;17.68;83.25
9035;BME280;4552;43.422;24.592;2023-09-18T22:17:39;100201.53;;;17.39;85.39
9035;BME280;4552;43.422;24.592;2023-09-18T23:24:06;100200.38;;;15.94;94.21
9035;BME280;4552;43.422;24.592;2023-09-18T23:26:36;100216.31;;;15.91;94.75
9035;BME280;4552;43.422;24.592;2023-09-18T23:29:04;100201.75;;;15.78;95.64
9035;BME280;4552;43.422;24.592;2023-09-18T23:31:33;100210.28;;;15.86;95.87
9035;BME280;4552;43.422;24.592;2023-09-18T23:34:02;100213.03;;;15.83;96.05
9035;BME280;4552;43.422;24.592;2023-09-18T23:36:32;100204.47;;;15.75;97.08
9035;BME280;4552;43.422;24.592;2023-09-18T23:38:59;100200.06;;;15.75;96.14
9035;BME280;4552;43.422;24.592;2023-09-18T23:41:35;100199.78;;;15.84;95.88
9035;BME280;4552;43.422;24.592;2023-09-18T23:44:02;100198.91;;;15.84;95.95
9035;BME280;4552;43.422;24.592;2023-09-18T23:46:31;100200.41;;;15.92;95.88
